Time;durP1;ratioP1;P1;durP2;ratioP2;P2;SDS_P1;SDS_P2;PMS_P1;PMS_P2;Temp;Humidity;BMP_temperature;BMP_pressure;BME280_temperature;BME280_humidity;BME280_pressure;Samples;Min_cycle;Max_cycle;Signal;HPM_P1;HPM_P2
2023/06/28 00:01:19;;;;;;;17.10;14.60;;;;;;;;;;5053933;28;20487;-62
2023/06/28 00:03:47;;;;;;;17.02;14.10;;;;;;;;;;5052885;28;20056;-62
2023/06/28 00:06:14;;;;;;;15.63;12.40;;;;;;;;;;5053900;28;20045;-62
2023/06/28 00:08:41;;;;;;;15.18;12.07;;;;;;;;;;5053872;28;20060;-62
2023/06/28 00:11:10;;;;;;;14.30;11.93;;;;;;;;;;5053923;28;20404;-62
2023/06/28 00:13:36;;;;;;;12.05;10.55;;;;;;;;;;5053594;28;20416;-62
2023/06/28 00:16:03;;;;;;;11.25;8.68;;;;;;;;;;5053804;28;20049;-62
2023/06/28 00:18:30;;;;;;;11.52;10.32;;;;;;;;;;5053654;28;20493;-62
2023/06/28 00:20:56;;;;;;;11.32;9.77;;;;;;;;;;5053637;28;20527;-62
2023/06/28 00:23:23;;;;;;;11.30;9.07;;;;;;;;;;5053740;28;20057;-61
2023/06/28 00:25:49;;;;;;;9.55;8.45;;;;;;;;;;5053384;28;20297;-62
2023/06/28 00:28:16;;;;;;;8.35;7.55;;;;;;;;;;5053294;28;20487;-62
2023/06/28 00:30:42;;;;;;;9.15;8.25;;;;;;;;;;5053504;28;20210;-61
2023/06/28 00:33:09;;;;;;;9.00;7.32;;;;;;;;;;5053308;28;20496;-62
2023/06/28 00:35:36;;;;;;;9.48;8.25;;;;;;;;;;5053501;28;20045;-61
2023/06/28 00:38:02;;;;;;;8.48;7.45;;;;;;;;;;5053029;28;20102;-62
2023/06/28 00:40:28;;;;;;;8.40;7.22;;;;;;;;;;5053376;28;20048;-61
2023/06/28 00:42:55;;;;;;;7.63;6.82;;;;;;;;;;5053285;28;20053;-63
2023/06/28 00:45:21;;;;;;;7.82;7.13;;;;;;;;;;5053096;28;20045;-62
2023/06/28 00:47:48;;;;;;;7.97;7.18;;;;;;;;;;5053102;28;20546;-62
2023/06/28 00:50:15;;;;;;;8.48;7.68;;;;;;;;;;5052926;28;20048;-61
2023/06/28 00:52:41;;;;;;;8.32;7.53;;;;;;;;;;5052846;28;20432;-62
2023/06/28 00:55:08;;;;;;;9.00;7.90;;;;;;;;;;5052578;28;20511;-62
2023/06/28 00:57:34;;;;;;;8.38;7.50;;;;;;;;;;5053092;28;20060;-62
2023/06/28 01:00:01;;;;;;;7.72;7.03;;;;;;;;;;5053037;28;20053;-62
2023/06/28 01:02:29;;;;;;;8.50;7.70;;;;;;;;;;5052907;28;20053;-62
2023/06/28 01:04:57;;;;;;;9.70;8.70;;;;;;;;;;5052948;28;20076;-61
2023/06/28 01:07:28;;;;;;;10.23;9.07;;;;;;;;;;5052380;28;20063;-62
2023/06/28 01:09:56;;;;;;;11.25;9.10;;;;;;;;;;5052625;28;20041;-62
2023/06/28 01:12:24;;;;;;;12.77;10.32;;;;;;;;;;5052696;28;20040;-62
2023/06/28 01:14:50;;;;;;;12.57;9.52;;;;;;;;;;5052269;28;20049;-62
2023/06/28 01:17:17;;;;;;;12.13;9.87;;;;;;;;;;5052443;28;20056;-62
2023/06/28 01:19:43;;;;;;;13.32;10.68;;;;;;;;;;5052599;28;20049;-62
2023/06/28 01:22:12;;;;;;;14.80;10.00;;;;;;;;;;5052692;28;20053;-62
2023/06/28 01:25:10;;;;;;;14.23;10.43;;;;;;;;;;5052357;28;20045;-62
2023/06/28 01:27:44;;;;;;;13.82;10.68;;;;;;;;;;5052206;28;20045;-62
2023/06/28 01:30:14;;;;;;;11.90;10.40;;;;;;;;;;5052213;28;20037;-62
2023/06/28 01:32:42;;;;;;;13.05;10.55;;;;;;;;;;5052254;28;20048;-62
2023/06/28 01:35:09;;;;;;;14.95;11.57;;;;;;;;;;5045832;28;20480;-62
2023/06/28 01:37:37;;;;;;;15.43;12.48;;;;;;;;;;5051904;28;20500;-62
2023/06/28 01:40:05;;;;;;;14.50;12.20;;;;;;;;;;5051937;28;20118;-62
2023/06/28 01:42:33;;;;;;;14.57;11.60;;;;;;;;;;5052056;28;20474;-62
2023/06/28 01:45:00;;;;;;;15.07;11.77;;;;;;;;;;5051618;28;20456;-62
2023/06/28 01:47:26;;;;;;;14.43;12.02;;;;;;;;;;5051957;28;20053;-62
2023/06/28 01:49:53;;;;;;;13.30;11.63;;;;;;;;;;5052316;28;20051;-62
2023/06/28 01:52:19;;;;;;;16.05;12.20;;;;;;;;;;5052203;28;20041;-62
2023/06/28 01:54:46;;;;;;;14.75;11.38;;;;;;;;;;5052148;28;20407;-62
2023/06/28 01:57:12;;;;;;;15.93;12.48;;;;;;;;;;5051722;28;20057;-62
2023/06/28 01:59:38;;;;;;;16.70;11.95;;;;;;;;;;5051928;28;20057;-62
2023/06/28 02:02:05;;;;;;;17.13;11.48;;;;;;;;;;5051940;28;20052;-62
2023/06/28 02:04:31;;;;;;;14.52;11.27;;;;;;;;;;5051600;28;20492;-62
2023/06/28 02:06:58;;;;;;;14.95;10.95;;;;;;;;;;5051833;28;20128;-62
2023/06/28 02:09:24;;;;;;;16.92;11.70;;;;;;;;;;5051648;28;20179;-62
2023/06/28 02:11:51;;;;;;;14.10;11.57;;;;;;;;;;5051775;28;20045;-62
2023/06/28 02:14:17;;;;;;;15.48;12.23;;;;;;;;;;5051810;28;20060;-61
2023/06/28 02:16:43;;;;;;;16.17;12.52;;;;;;;;;;5051754;28;20049;-62
2023/06/28 02:19:15;;;;;;;16.23;12.95;;;;;;;;;;5051742;28;20053;-62
2023/06/28 02:21:42;;;;;;;17.35;13.35;;;;;;;;;;5051793;28;20082;-62
2023/06/28 02:24:08;;;;;;;15.47;12.43;;;;;;;;;;5051578;28;20135;-62
2023/06/28 02:26:35;;;;;;;16.53;12.40;;;;;;;;;;5052098;28;20302;-62
2023/06/28 02:29:01;;;;;;;17.63;13.15;;;;;;;;;;5055896;28;20048;-62
2023/06/28 02:31:28;;;;;;;17.42;13.57;;;;;;;;;;5055692;28;20045;-62
2023/06/28 02:33:54;;;;;;;18.13;13.50;;;;;;;;;;5055883;28;20488;-62
2023/06/28 02:36:21;;;;;;;16.67;12.63;;;;;;;;;;5055654;28;20057;-62
2023/06/28 02:38:47;;;;;;;18.58;13.75;;;;;;;;;;5055385;28;20139;-62
2023/06/28 02:41:14;;;;;;;14.25;12.40;;;;;;;;;;5055409;28;20447;-62
2023/06/28 02:43:40;;;;;;;15.90;13.15;;;;;;;;;;5055217;28;20045;-62
2023/06/28 02:46:06;;;;;;;18.63;13.57;;;;;;;;;;5055147;28;20131;-62
2023/06/28 02:48:33;;;;;;;15.77;13.55;;;;;;;;;;5055198;28;20523;-62
2023/06/28 02:50:59;;;;;;;16.70;12.85;;;;;;;;;;5055379;28;20067;-62
2023/06/28 02:53:26;;;;;;;16.73;12.85;;;;;;;;;;5055111;28;20051;-62
2023/06/28 02:55:52;;;;;;;16.42;12.30;;;;;;;;;;5055475;28;20203;-62
2023/06/28 02:58:19;;;;;;;16.90;13.15;;;;;;;;;;5055431;28;20554;-62
2023/06/28 03:00:46;;;;;;;19.75;14.13;;;;;;;;;;5055202;28;20057;-62
2023/06/28 03:03:13;;;;;;;15.02;12.30;;;;;;;;;;5055330;28;20103;-62
2023/06/28 03:05:40;;;;;;;18.37;13.47;;;;;;;;;;5054970;28;20095;-62
2023/06/28 03:08:06;;;;;;;17.23;13.55;;;;;;;;;;5055150;28;20053;-62
2023/06/28 03:10:33;;;;;;;17.95;12.65;;;;;;;;;;5055122;28;20056;-62
2023/06/28 03:12:59;;;;;;;17.05;12.48;;;;;;;;;;5054834;28;20504;-62
2023/06/28 03:15:26;;;;;;;15.88;13.20;;;;;;;;;;5054671;28;20496;-62
2023/06/28 03:17:52;;;;;;;17.73;12.95;;;;;;;;;;5054984;28;20056;-62
2023/06/28 03:20:20;;;;;;;14.25;12.30;;;;;;;;;;5054763;28;20056;-61
2023/06/28 03:22:47;;;;;;;15.07;12.70;;;;;;;;;;5054696;28;20049;-62
2023/06/28 03:25:13;;;;;;;17.65;12.73;;;;;;;;;;5054702;28;20052;-62
2023/06/28 03:27:40;;;;;;;14.27;12.52;;;;;;;;;;5054489;28;20447;-62
2023/06/28 03:30:08;;;;;;;15.43;11.93;;;;;;;;;;5053401;28;20052;-62
2023/06/28 03:32:34;;;;;;;15.73;13.07;;;;;;;;;;5054778;28;20053;-62
2023/06/28 03:35:01;;;;;;;12.40;11.18;;;;;;;;;;5054488;28;20483;-62
2023/06/28 03:37:27;;;;;;;14.07;11.50;;;;;;;;;;5054221;28;20394;-62
2023/06/28 03:39:54;;;;;;;13.25;11.85;;;;;;;;;;5054369;28;20052;-62
2023/06/28 03:42:20;;;;;;;13.90;11.38;;;;;;;;;;5054461;28;20053;-62
2023/06/28 03:44:47;;;;;;;14.87;11.70;;;;;;;;;;5052783;28;20053;-62
2023/06/28 03:47:13;;;;;;;18.10;11.80;;;;;;;;;;5054536;28;20473;-62
2023/06/28 03:49:40;;;;;;;16.08;13.30;;;;;;;;;;5054079;28;20511;-62
2023/06/28 03:52:07;;;;;;;18.13;13.57;;;;;;;;;;5054303;28;20047;-62
2023/06/28 03:54:33;;;;;;;19.25;14.60;;;;;;;;;;5054379;28;20045;-62
2023/06/28 03:57:00;;;;;;;18.77;13.98;;;;;;;;;;5054043;28;20079;-62
2023/06/28 03:59:26;;;;;;;19.92;15.23;;;;;;;;;;5054073;28;20067;-62
2023/06/28 04:01:52;;;;;;;18.75;14.20;;;;;;;;;;5053990;28;20056;-61
2023/06/28 04:04:19;;;;;;;19.98;14.18;;;;;;;;;;5054032;28;20049;-62
2023/06/28 04:06:46;;;;;;;20.53;14.47;;;;;;;;;;5054142;28;20056;-62
2023/06/28 04:09:13;;;;;;;15.90;13.52;;;;;;;;;;5053643;28;20048;-62
2023/06/28 04:11:39;;;;;;;16.38;14.13;;;;;;;;;;5053773;28;20045;-61
2023/06/28 04:14:05;;;;;;;18.10;13.60;;;;;;;;;;5053776;28;20044;-62
2023/06/28 04:16:32;;;;;;;18.00;13.43;;;;;;;;;;5053580;28;20507;-62
2023/06/28 04:18:59;;;;;;;17.43;13.60;;;;;;;;;;5053469;28;20053;-62
2023/06/28 04:21:26;;;;;;;16.23;13.18;;;;;;;;;;5053509;28;20485;-62
2023/06/28 04:23:56;;;;;;;16.30;12.82;;;;;;;;;;5053811;28;20045;-62
2023/06/28 04:26:22;;;;;;;16.13;12.57;;;;;;;;;;5053729;28;20045;-62
2023/06/28 04:28:48;;;;;;;17.10;12.50;;;;;;;;;;5053450;28;20412;-62
2023/06/28 04:31:15;;;;;;;19.95;12.73;;;;;;;;;;5053234;28;20045;-62
2023/06/28 04:33:41;;;;;;;15.32;12.23;;;;;;;;;;5053820;28;20102;-62
2023/06/28 04:36:09;;;;;;;15.50;11.52;;;;;;;;;;5053152;28;20049;-62
2023/06/28 04:38:36;;;;;;;14.45;11.93;;;;;;;;;;5053516;28;20049;-62
2023/06/28 04:41:03;;;;;;;13.18;11.48;;;;;;;;;;5053036;28;20064;-62
2023/06/28 04:43:40;;;;;;;13.85;11.18;;;;;;;;;;5053129;28;20049;-62
2023/06/28 04:46:11;;;;;;;13.82;11.45;;;;;;;;;;5052973;28;20151;-62
2023/06/28 04:48:42;;;;;;;12.55;11.25;;;;;;;;;;5053194;28;20049;-62
2023/06/28 04:51:08;;;;;;;15.32;12.07;;;;;;;;;;5052370;28;20048;-62
2023/06/28 04:53:35;;;;;;;14.80;12.03;;;;;;;;;;5052875;28;20509;-62
2023/06/28 04:56:01;;;;;;;13.98;11.07;;;;;;;;;;5052845;28;20789;-62
2023/06/28 04:58:28;;;;;;;13.45;10.73;;;;;;;;;;5053113;28;20060;-63
2023/06/28 05:00:58;;;;;;;12.43;11.05;;;;;;;;;;5052732;28;20048;-62
2023/06/28 05:03:29;;;;;;;12.52;10.30;;;;;;;;;;5052670;28;20508;-62
2023/06/28 05:05:55;;;;;;;10.68;9.10;;;;;;;;;;5052753;28;20049;-62
2023/06/28 05:08:22;;;;;;;11.70;9.00;;;;;;;;;;5052627;28;20051;-62
2023/06/28 05:10:49;;;;;;;11.85;8.93;;;;;;;;;;5052674;28;20045;-62
2023/06/28 05:13:15;;;;;;;10.82;8.82;;;;;;;;;;5052798;28;20060;-62
2023/06/28 05:15:42;;;;;;;9.32;8.18;;;;;;;;;;5052699;28;20052;-62
2023/06/28 05:18:09;;;;;;;11.18;7.75;;;;;;;;;;5052768;28;20131;-63
2023/06/28 05:20:35;;;;;;;8.38;7.53;;;;;;;;;;5052556;28;20488;-62
2023/06/28 05:23:10;;;;;;;9.68;8.45;;;;;;;;;;5046351;28;20056;-62
2023/06/28 05:25:37;;;;;;;10.68;7.90;;;;;;;;;;5045380;28;20553;-62
2023/06/28 05:28:03;;;;;;;10.63;8.02;;;;;;;;;;5052584;28;20139;-62
2023/06/28 05:30:30;;;;;;;11.40;8.30;;;;;;;;;;5052677;28;20488;-62
2023/06/28 05:32:58;;;;;;;9.60;8.57;;;;;;;;;;5052103;28;20832;-62
2023/06/28 05:35:25;;;;;;;10.07;8.98;;;;;;;;;;5052367;28;20045;-62
2023/06/28 05:37:51;;;;;;;10.23;8.45;;;;;;;;;;5052054;28;20492;-62
2023/06/28 05:40:17;;;;;;;11.90;9.30;;;;;;;;;;5052259;28;20420;-62
2023/06/28 05:42:44;;;;;;;10.95;9.02;;;;;;;;;;5051885;28;20049;-61
2023/06/28 05:45:10;;;;;;;11.52;9.10;;;;;;;;;;5052092;28;20060;-62
2023/06/28 05:47:37;;;;;;;11.50;9.07;;;;;;;;;;5052092;28;20052;-62
2023/06/28 05:50:03;;;;;;;9.73;8.73;;;;;;;;;;5051828;28;20049;-63
2023/06/28 05:52:30;;;;;;;11.88;10.05;;;;;;;;;;5051881;28;20095;-62
2023/06/28 05:54:56;;;;;;;13.85;10.18;;;;;;;;;;5051763;28;20488;-62
2023/06/28 05:57:23;;;;;;;12.63;10.80;;;;;;;;;;5046361;28;20041;-61
2023/06/28 05:59:49;;;;;;;12.75;10.88;;;;;;;;;;5051891;28;20049;-61
2023/06/28 06:02:16;;;;;;;15.43;11.07;;;;;;;;;;5050889;28;20052;-61
2023/06/28 06:04:42;;;;;;;12.37;11.07;;;;;;;;;;5051753;28;20525;-61
2023/06/28 06:07:09;;;;;;;16.05;11.85;;;;;;;;;;5051006;28;20049;-61
2023/06/28 06:09:35;;;;;;;14.55;11.88;;;;;;;;;;5051491;28;20087;-61
2023/06/28 06:12:02;;;;;;;13.00;11.70;;;;;;;;;;5050898;28;20045;-62
2023/06/28 06:14:29;;;;;;;13.18;11.80;;;;;;;;;;5051833;28;20065;-62
2023/06/28 06:16:56;;;;;;;;;;;;;;;;;;5052223;28;20045;-62
2023/06/28 06:19:22;;;;;;;14.27;11.15;;;;;;;;;;5051585;28;19944;-61
2023/06/28 06:21:48;;;;;;;12.63;11.20;;;;;;;;;;5051669;28;20111;-61
2023/06/28 06:24:15;;;;;;;15.68;11.32;;;;;;;;;;5051731;28;20056;-62
2023/06/28 06:26:41;;;;;;;12.18;10.50;;;;;;;;;;5051462;28;20049;-62
2023/06/28 06:29:08;;;;;;;12.30;10.38;;;;;;;;;;5051265;28;20456;-62
2023/06/28 06:31:34;;;;;;;14.63;11.00;;;;;;;;;;5050903;28;20475;-61
2023/06/28 06:34:01;;;;;;;11.98;10.70;;;;;;;;;;5018715;28;20086;-62
2023/06/28 06:36:28;;;;;;;13.40;10.68;;;;;;;;;;5031307;28;20080;-61
2023/06/28 06:38:55;;;;;;;12.98;10.45;;;;;;;;;;5048410;28;20053;-62
2023/06/28 06:41:22;;;;;;;13.57;9.23;;;;;;;;;;5051428;28;20049;-62
2023/06/28 06:43:51;;;;;;;10.02;8.90;;;;;;;;;;5051279;28;20048;-61
2023/06/28 06:46:20;;;;;;;10.20;8.73;;;;;;;;;;5050584;28;20451;-62
2023/06/28 06:48:47;;;;;;;11.80;9.00;;;;;;;;;;5051004;28;20045;-62
2023/06/28 06:51:14;;;;;;;10.05;8.57;;;;;;;;;;5051399;28;20059;-62
2023/06/28 06:53:40;;;;;;;12.70;9.20;;;;;;;;;;5051222;28;20041;-61
2023/06/28 06:56:07;;;;;;;10.18;8.75;;;;;;;;;;5051322;28;20500;-61
2023/06/28 06:58:33;;;;;;;9.40;8.03;;;;;;;;;;5050673;28;20057;-62
2023/06/28 07:01:00;;;;;;;10.98;7.97;;;;;;;;;;5049697;28;20523;-62
2023/06/28 07:03:26;;;;;;;9.75;7.93;;;;;;;;;;5049555;28;20052;-62
2023/06/28 07:05:52;;;;;;;10.60;8.25;;;;;;;;;;5050621;28;20130;-62
2023/06/28 07:08:19;;;;;;;9.00;7.97;;;;;;;;;;5050872;28;20054;-62
2023/06/28 07:10:46;;;;;;;11.48;8.30;;;;;;;;;;5051289;28;20451;-62
2023/06/28 07:13:14;;;;;;;9.00;8.07;;;;;;;;;;5052432;28;20045;-62
2023/06/28 07:15:40;;;;;;;17.05;9.30;;;;;;;;;;5054517;28;20056;-62
2023/06/28 07:18:07;;;;;;;40.78;12.68;;;;;;;;;;5054855;28;20049;-62
2023/06/28 07:20:34;;;;;;;14.48;9.55;;;;;;;;;;5054709;28;20128;-62
2023/06/28 07:23:00;;;;;;;14.30;9.15;;;;;;;;;;5054960;28;20045;-61
2023/06/28 07:25:28;;;;;;;11.70;8.57;;;;;;;;;;5054696;28;20488;-62
2023/06/28 07:27:54;;;;;;;10.52;8.20;;;;;;;;;;5054729;28;20439;-63
2023/06/28 07:30:23;;;;;;;9.75;8.43;;;;;;;;;;5053555;28;20041;-61
2023/06/28 07:32:50;;;;;;;11.55;9.00;;;;;;;;;;5054382;28;20052;-62
2023/06/28 07:35:16;;;;;;;11.10;8.63;;;;;;;;;;5054670;28;20069;-62
2023/06/28 07:37:43;;;;;;;9.48;8.48;;;;;;;;;;5054554;28;20286;-62
2023/06/28 07:40:10;;;;;;;12.63;8.77;;;;;;;;;;5054551;28;20049;-62
2023/06/28 07:42:37;;;;;;;9.52;7.88;;;;;;;;;;5054175;28;20501;-62
2023/06/28 07:45:03;;;;;;;;;;;;;;;;;;5054575;28;20088;-62
2023/06/28 07:47:30;;;;;;;10.90;8.73;;;;;;;;;;5054393;28;19924;-62
2023/06/28 07:49:56;;;;;;;12.48;8.43;;;;;;;;;;5054142;28;20060;-61
2023/06/28 07:52:23;;;;;;;12.83;9.23;;;;;;;;;;5054189;28;20041;-62
2023/06/28 07:54:49;;;;;;;10.45;8.18;;;;;;;;;;5054587;28;20049;-62
2023/06/28 07:57:16;;;;;;;9.98;8.88;;;;;;;;;;5054109;28;20427;-62
2023/06/28 07:59:42;;;;;;;9.95;8.70;;;;;;;;;;5053981;28;20111;-62
2023/06/28 08:02:08;;;;;;;11.88;8.63;;;;;;;;;;5053902;28;20064;-62
2023/06/28 08:04:35;;;;;;;9.48;7.68;;;;;;;;;;5054159;28;20060;-62
2023/06/28 08:07:05;;;;;;;9.30;8.10;;;;;;;;;;5054148;28;20083;-62
2023/06/28 08:09:32;;;;;;;9.68;7.90;;;;;;;;;;5054037;28;20099;-62
2023/06/28 08:11:58;;;;;;;9.60;8.07;;;;;;;;;;5053811;28;20171;-62
2023/06/28 08:14:25;;;;;;;10.40;8.93;;;;;;;;;;5053651;28;20554;-62
2023/06/28 08:16:51;;;;;;;10.90;8.90;;;;;;;;;;5053969;28;20049;-62
2023/06/28 08:19:18;;;;;;;12.27;8.23;;;;;;;;;;5053779;28;20045;-62
2023/06/28 08:21:44;;;;;;;13.43;8.63;;;;;;;;;;5053601;28;20048;-62
2023/06/28 08:24:10;;;;;;;9.60;8.60;;;;;;;;;;5052657;28;20056;-62
2023/06/28 08:26:37;;;;;;;9.95;8.27;;;;;;;;;;5053482;28;20064;-63
2023/06/28 08:29:06;;;;;;;10.13;8.43;;;;;;;;;;5053522;28;20165;-62
2023/06/28 08:31:33;;;;;;;10.90;9.13;;;;;;;;;;5053634;28;20040;-62
2023/06/28 08:34:00;;;;;;;13.43;9.25;;;;;;;;;;5052382;28;20045;-62
2023/06/28 08:36:28;;;;;;;11.30;9.17;;;;;;;;;;5053247;28;20051;-62
2023/06/28 08:38:55;;;;;;;11.55;9.45;;;;;;;;;;5053360;28;20292;-62
2023/06/28 08:41:21;;;;;;;11.18;9.35;;;;;;;;;;5053335;28;20076;-62
2023/06/28 08:43:50;;;;;;;9.90;8.88;;;;;;;;;;5053083;28;20438;-62
2023/06/28 08:46:17;;;;;;;10.18;9.10;;;;;;;;;;5052961;28;20053;-63
2023/06/28 08:48:44;;;;;;;11.40;9.93;;;;;;;;;;5053207;28;20041;-62
2023/06/28 08:51:10;;;;;;;11.88;10.10;;;;;;;;;;5052964;28;20051;-62
2023/06/28 08:53:37;;;;;;;11.70;9.73;;;;;;;;;;5052891;28;20041;-62
2023/06/28 08:56:04;;;;;;;11.73;10.45;;;;;;;;;;5053113;28;20048;-62
2023/06/28 08:58:31;;;;;;;14.25;10.60;;;;;;;;;;5053055;28;20052;-62
2023/06/28 09:00:59;;;;;;;12.18;10.88;;;;;;;;;;5052827;28;20110;-62
2023/06/28 09:03:25;;;;;;;11.48;10.27;;;;;;;;;;5053016;28;20483;-62
2023/06/28 09:05:52;;;;;;;11.90;10.07;;;;;;;;;;5052799;28;20044;-62
2023/06/28 09:08:19;;;;;;;12.55;11.25;;;;;;;;;;5052515;28;20049;-62
2023/06/28 09:10:45;;;;;;;13.50;11.23;;;;;;;;;;5052765;28;20422;-62
2023/06/28 09:13:19;;;;;;;14.03;11.57;;;;;;;;;;5052666;28;20079;-62
2023/06/28 09:15:46;;;;;;;13.15;10.70;;;;;;;;;;5052725;28;20605;-63
2023/06/28 09:18:12;;;;;;;;;;;;;;;;;;5053203;28;20106;-62
2023/06/28 09:20:46;;;;;;;11.73;10.52;;;;;;;;;;5052436;28;19928;-62
2023/06/28 09:23:13;;;;;;;13.65;11.57;;;;;;;;;;5052409;28;20044;-62
2023/06/28 09:25:41;;;;;;;13.17;11.67;;;;;;;;;;5052582;28;20052;-62
2023/06/28 09:28:08;;;;;;;13.18;11.45;;;;;;;;;;5052325;28;20654;-62
2023/06/28 09:30:35;;;;;;;13.40;11.88;;;;;;;;;;5052517;28;20056;-62
2023/06/28 09:33:04;;;;;;;12.48;11.18;;;;;;;;;;5052436;28;20044;-63
2023/06/28 09:35:31;;;;;;;13.05;11.57;;;;;;;;;;5052309;28;20049;-63
2023/06/28 09:38:04;;;;;;;14.27;12.23;;;;;;;;;;5052413;28;20092;-63
2023/06/28 09:40:36;;;;;;;13.50;11.23;;;;;;;;;;5052351;28;20239;-62
2023/06/28 09:43:03;;;;;;;13.05;11.75;;;;;;;;;;5051949;28;20515;-62
2023/06/28 09:45:31;;;;;;;12.75;11.45;;;;;;;;;;5051884;28;20144;-63
2023/06/28 09:48:01;;;;;;;13.32;11.90;;;;;;;;;;5051893;28;20047;-63
2023/06/28 09:50:35;;;;;;;13.02;11.43;;;;;;;;;;5052221;28;20091;-62
2023/06/28 09:53:01;;;;;;;16.42;12.98;;;;;;;;;;5052284;28;20083;-63
2023/06/28 09:55:28;;;;;;;17.65;12.27;;;;;;;;;;5052138;28;20095;-62
2023/06/28 09:57:56;;;;;;;14.13;12.32;;;;;;;;;;5052148;28;20052;-62
2023/06/28 10:00:25;;;;;;;13.75;12.30;;;;;;;;;;5051763;28;20049;-62
2023/06/28 10:02:51;;;;;;;14.57;12.40;;;;;;;;;;5051642;28;20068;-62
2023/06/28 10:05:18;;;;;;;14.13;12.70;;;;;;;;;;5051699;28;20561;-63
2023/06/28 10:07:46;;;;;;;16.45;12.30;;;;;;;;;;5050632;28;20057;-62
2023/06/28 10:10:12;;;;;;;15.82;12.50;;;;;;;;;;5051685;28;20393;-63
2023/06/28 10:12:39;;;;;;;13.85;12.32;;;;;;;;;;5051835;28;20056;-62
2023/06/28 10:15:08;;;;;;;13.60;12.27;;;;;;;;;;5051606;28;20049;-62
2023/06/28 10:17:35;;;;;;;13.70;11.65;;;;;;;;;;5051756;28;20079;-62
2023/06/28 10:20:04;;;;;;;13.32;12.02;;;;;;;;;;5051537;28;20496;-63
2023/06/28 10:22:31;;;;;;;13.73;12.05;;;;;;;;;;5051625;28;20431;-62
2023/06/28 10:24:58;;;;;;;;;;;;;;;;;;5052230;28;20045;-62
2023/06/28 10:27:24;;;;;;;;;;;;;;;;;;5051955;28;20388;-63
2023/06/28 10:29:52;;;;;;;13.02;11.48;;;;;;;;;;5051380;28;19928;-62
2023/06/28 10:32:19;;;;;;;13.15;11.77;;;;;;;;;;5051429;28;20053;-63
2023/06/28 10:34:46;;;;;;;13.30;11.23;;;;;;;;;;5051649;28;20059;-63
2023/06/28 10:37:12;;;;;;;12.38;11.25;;;;;;;;;;5051309;28;20099;-62
2023/06/28 10:39:39;;;;;;;12.85;11.52;;;;;;;;;;5051521;28;20053;-62
2023/06/28 10:42:06;;;;;;;;;;;;;;;;;;5051682;28;20049;-63
2023/06/28 10:44:33;;;;;;;12.73;11.50;;;;;;;;;;5051495;28;19925;-63
2023/06/28 10:47:12;;;;;;;12.95;11.65;;;;;;;;;;5051270;28;20115;-62
2023/06/28 10:49:40;;;;;;;12.90;11.30;;;;;;;;;;5055529;28;20396;-63
2023/06/28 10:52:13;;;;;;;12.68;11.55;;;;;;;;;;5055449;28;20063;-63
2023/06/28 10:54:40;;;;;;;12.32;11.13;;;;;;;;;;5055088;28;20535;-63
2023/06/28 10:57:14;;;;;;;12.23;11.05;;;;;;;;;;5055090;28;20044;-63
2023/06/28 10:59:41;;;;;;;11.82;10.82;;;;;;;;;;5055314;28;20048;-63
2023/06/28 11:02:08;;;;;;;12.70;11.48;;;;;;;;;;5055152;28;20049;-63
2023/06/28 11:04:48;;;;;;;11.38;10.27;;;;;;;;;;5055142;28;20095;-63
2023/06/28 11:07:16;;;;;;;12.40;11.20;;;;;;;;;;5055046;28;20124;-63
2023/06/28 11:10:14;;;;;;;12.23;10.98;;;;;;;;;;5055128;28;20060;-63
2023/06/28 11:12:41;;;;;;;12.05;10.80;;;;;;;;;;5050616;28;20049;-63
2023/06/28 11:15:11;;;;;;;11.95;10.85;;;;;;;;;;5054933;28;20488;-63
2023/06/28 11:17:37;;;;;;;11.70;10.45;;;;;;;;;;5054668;28;20045;-63
2023/06/28 11:20:09;;;;;;;11.73;10.73;;;;;;;;;;5054704;28;20056;-62
2023/06/28 11:22:49;;;;;;;12.10;10.90;;;;;;;;;;5054860;28;20055;-63
2023/06/28 11:25:16;;;;;;;12.27;11.18;;;;;;;;;;5054780;28;20063;-63
2023/06/28 11:27:42;;;;;;;12.35;11.25;;;;;;;;;;5054781;28;20049;-63
2023/06/28 11:30:09;;;;;;;11.60;10.55;;;;;;;;;;5054471;28;20481;-63
2023/06/28 11:32:36;;;;;;;;;;;;;;;;;;5055110;28;20056;-63
2023/06/28 11:35:04;;;;;;;11.82;10.27;;;;;;;;;;5054612;28;19925;-62
2023/06/28 11:37:30;;;;;;;12.20;10.85;;;;;;;;;;5054341;28;20544;-63
2023/06/28 11:40:00;;;;;;;11.63;10.52;;;;;;;;;;5054394;28;20049;-63
2023/06/28 11:42:26;;;;;;;15.27;11.10;;;;;;;;;;5054316;28;20049;-63
2023/06/28 11:44:53;;;;;;;;;;;;;;;;;;5054781;28;20053;-63
2023/06/28 11:47:20;;;;;;;22.83;10.95;;;;;;;;;;5054737;28;19925;-63
2023/06/28 11:49:51;;;;;;;11.13;10.02;;;;;;;;;;5053216;28;20127;-64
2023/06/28 11:52:18;;;;;;;11.05;10.05;;;;;;;;;;5054467;28;20071;-63
2023/06/28 11:54:44;;;;;;;11.20;10.20;;;;;;;;;;5054489;28;20052;-63
2023/06/28 11:57:11;;;;;;;;;;;;;;;;;;5054335;28;20099;-63
2023/06/28 11:59:44;;;;;;;10.70;9.80;;;;;;;;;;5052760;28;19929;-63
2023/06/28 12:02:10;;;;;;;11.15;10.15;;;;;;;;;;5054122;28;20053;-63
2023/06/28 12:04:37;;;;;;;11.52;10.52;;;;;;;;;;5053822;28;20052;-63
2023/06/28 12:07:05;;;;;;;11.05;10.15;;;;;;;;;;5053977;28;20053;-63
2023/06/28 12:09:32;;;;;;;11.77;10.60;;;;;;;;;;5053858;28;20071;-63
2023/06/28 12:12:04;;;;;;;10.70;9.80;;;;;;;;;;5053769;28;20053;-63
2023/06/28 12:14:37;;;;;;;10.95;9.95;;;;;;;;;;5053830;28;20067;-63
2023/06/28 12:17:03;;;;;;;11.20;10.20;;;;;;;;;;5053900;28;20049;-63
2023/06/28 12:19:35;;;;;;;11.13;10.13;;;;;;;;;;5053606;28;20049;-63
2023/06/28 12:22:02;;;;;;;10.80;9.90;;;;;;;;;;5053988;28;20056;-62
2023/06/28 12:24:29;;;;;;;11.02;9.65;;;;;;;;;;5053627;28;20839;-63
2023/06/28 12:26:59;;;;;;;13.48;10.45;;;;;;;;;;5053702;28;20053;-63
2023/06/28 12:29:29;;;;;;;11.07;9.95;;;;;;;;;;5053527;28;20045;-62
2023/06/28 12:32:05;;;;;;;11.25;10.15;;;;;;;;;;5053413;28;20417;-63
2023/06/28 12:34:34;;;;;;;10.52;9.52;;;;;;;;;;5053286;28;20081;-63
2023/06/28 12:37:03;;;;;;;11.73;10.18;;;;;;;;;;5053531;28;20080;-63
2023/06/28 12:39:33;;;;;;;11.30;10.13;;;;;;;;;;5053500;28;20053;-63
2023/06/28 12:42:04;;;;;;;10.95;9.32;;;;;;;;;;5053151;28;20575;-62
2023/06/28 12:44:31;;;;;;;10.77;9.70;;;;;;;;;;5052951;28;20511;-62
2023/06/28 12:46:58;;;;;;;10.95;9.85;;;;;;;;;;5053067;28;20576;-63
2023/06/28 12:49:34;;;;;;;11.20;10.13;;;;;;;;;;5052988;28;20049;-62
2023/06/28 12:52:00;;;;;;;10.98;9.82;;;;;;;;;;5052937;28;20519;-63
2023/06/28 12:54:26;;;;;;;11.30;10.20;;;;;;;;;;5053000;28;20041;-63
2023/06/28 12:56:53;;;;;;;10.20;9.23;;;;;;;;;;5053212;28;20045;-63
2023/06/28 12:59:19;;;;;;;10.43;9.50;;;;;;;;;;5053370;28;20045;-63
2023/06/28 13:01:46;;;;;;;9.88;8.93;;;;;;;;;;5052731;28;20056;-63
2023/06/28 13:04:12;;;;;;;10.45;9.45;;;;;;;;;;5052903;28;20053;-62
2023/06/28 13:06:39;;;;;;;9.98;9.02;;;;;;;;;;5053063;28;20087;-63
2023/06/28 13:09:05;;;;;;;9.85;8.90;;;;;;;;;;5052823;28;20049;-63
2023/06/28 13:11:33;;;;;;;9.32;8.50;;;;;;;;;;5052381;28;20465;-63
2023/06/28 13:13:59;;;;;;;10.05;9.05;;;;;;;;;;5052548;28;20488;-63
2023/06/28 13:16:26;;;;;;;10.52;9.55;;;;;;;;;;5052589;28;20037;-63
2023/06/28 13:18:52;;;;;;;11.60;9.32;;;;;;;;;;5052998;28;20055;-62
2023/06/28 13:21:18;;;;;;;9.80;8.90;;;;;;;;;;5052688;28;20045;-63
2023/06/28 13:23:45;;;;;;;10.27;9.38;;;;;;;;;;5052703;28;20056;-63
2023/06/28 13:26:12;;;;;;;10.52;9.52;;;;;;;;;;5052564;28;20052;-63
2023/06/28 13:28:40;;;;;;;10.30;9.35;;;;;;;;;;5052375;28;20414;-63
2023/06/28 13:31:06;;;;;;;10.07;9.05;;;;;;;;;;5052393;28;20049;-63
2023/06/28 13:33:33;;;;;;;10.60;9.60;;;;;;;;;;5052538;28;20041;-63
2023/06/28 13:35:59;;;;;;;10.27;9.48;;;;;;;;;;5052486;28;20052;-63
2023/06/28 13:38:26;;;;;;;10.90;9.90;;;;;;;;;;5052259;28;20381;-63
2023/06/28 13:40:52;;;;;;;11.13;9.88;;;;;;;;;;5052112;28;20053;-63
2023/06/28 13:43:18;;;;;;;;;;;;;;;;;;5052678;28;20052;-63
2023/06/28 13:45:45;;;;;;;;;;;;;;;;;;5052249;28;19986;-63
2023/06/28 13:48:11;;;;;;;;;;;;;;;;;;5052738;28;19925;-64
2023/06/28 13:50:38;;;;;;;11.30;10.10;;;;;;;;;;5052024;28;19935;-63
2023/06/28 13:53:05;;;;;;;10.88;9.88;;;;;;;;;;5051858;28;20492;-63
2023/06/28 13:55:32;;;;;;;12.13;10.00;;;;;;;;;;5051958;28;20067;-62
2023/06/28 13:57:58;;;;;;;11.85;10.65;;;;;;;;;;5051951;28;20053;-63
2023/06/28 14:00:25;;;;;;;11.40;10.30;;;;;;;;;;5051712;28;20424;-63
2023/06/28 14:02:52;;;;;;;10.27;9.25;;;;;;;;;;5051966;28;20056;-63
2023/06/28 14:05:18;;;;;;;10.88;9.88;;;;;;;;;;5051776;28;20064;-63
2023/06/28 14:07:48;;;;;;;10.90;9.80;;;;;;;;;;5051577;28;20393;-63
2023/06/28 14:10:14;;;;;;;11.10;9.98;;;;;;;;;;5051549;28;20102;-63
2023/06/28 14:12:42;;;;;;;11.75;9.30;;;;;;;;;;5051846;28;20052;-63
2023/06/28 14:15:08;;;;;;;10.25;9.25;;;;;;;;;;5051976;28;20053;-63
2023/06/28 14:17:35;;;;;;;9.65;8.65;;;;;;;;;;5051527;28;20485;-63
2023/06/28 14:20:01;;;;;;;9.20;8.38;;;;;;;;;;5051862;28;20053;-62
2023/06/28 14:22:28;;;;;;;9.13;8.23;;;;;;;;;;5051049;28;20060;-63
2023/06/28 14:24:55;;;;;;;9.43;8.43;;;;;;;;;;5051568;28;20055;-63
2023/06/28 14:27:21;;;;;;;10.73;8.52;;;;;;;;;;5051901;28;20056;-63
2023/06/28 14:29:47;;;;;;;9.18;8.27;;;;;;;;;;5051661;28;20106;-63